sensor_id;sensor_type;location;lat;lon;timestamp;pressure;altitude;pressure_sealevel;temperature;humidity
13387;BME280;6763;48.524;9.044;2024-03-02T00:01:53;96642.41;;;8.04;60.33
13387;BME280;6763;48.524;9.044;2024-03-02T00:04:18;96644.94;;;8.05;60.50
13387;BME280;6763;48.524;9.044;2024-03-02T00:06:44;96638.13;;;8.03;60.58
13387;BME280;6763;48.524;9.044;2024-03-02T00:09:10;96637.44;;;7.98;60.30
13387;BME280;6763;48.524;9.044;2024-03-02T00:11:37;96638.22;;;8.00;60.14
13387;BME280;6763;48.524;9.044;2024-03-02T00:14:03;96637.44;;;7.98;60.53
13387;BME280;6763;48.524;9.044;2024-03-02T00:16:31;96643.38;;;8.00;60.34
13387;BME280;6763;48.524;9.044;2024-03-02T00:19:02;96615.41;;;7.86;60.24
13387;BME280;6763;48.524;9.044;2024-03-02T00:21:29;96634.00;;;7.97;60.02
13387;BME280;6763;48.524;9.044;2024-03-02T00:23:55;96639.16;;;7.97;60.30
13387;BME280;6763;48.524;9.044;2024-03-02T00:26:20;96649.38;;;8.00;60.37
13387;BME280;6763;48.524;9.044;2024-03-02T00:28:46;96633.31;;;7.91;60.75
13387;BME280;6763;48.524;9.044;2024-03-02T00:31:12;96646.88;;;7.97;61.07
13387;BME280;6763;48.524;9.044;2024-03-02T00:33:44;96646.81;;;8.00;60.92
13387;BME280;6763;48.524;9.044;2024-03-02T00:36:12;96649.31;;;8.02;61.34
13387;BME280;6763;48.524;9.044;2024-03-02T00:38:48;96648.38;;;8.06;61.42
13387;BME280;6763;48.524;9.044;2024-03-02T00:41:30;96636.38;;;8.05;60.94
13387;BME280;6763;48.524;9.044;2024-03-02T00:44:01;96633.84;;;8.03;61.27
13387;BME280;6763;48.524;9.044;2024-03-02T00:46:36;96637.09;;;8.10;61.17
13387;BME280;6763;48.524;9.044;2024-03-02T00:49:03;96640.56;;;8.09;61.23
13387;BME280;6763;48.524;9.044;2024-03-02T00:51:31;96628.50;;;8.09;60.58
13387;BME280;6763;48.524;9.044;2024-03-02T00:54:04;96643.84;;;8.14;60.40
13387;BME280;6763;48.524;9.044;2024-03-02T00:56:30;96631.19;;;8.06;60.59
13387;BME280;6763;48.524;9.044;2024-03-02T00:58:56;96638.72;;;8.12;60.38
13387;BME280;6763;48.524;9.044;2024-03-02T01:01:22;96644.78;;;8.11;60.40
13387;BME280;6763;48.524;9.044;2024-03-02T01:03:48;96640.44;;;8.12;60.38
13387;BME280;6763;48.524;9.044;2024-03-02T01:06:14;96620.91;;;8.05;60.59
13387;BME280;6763;48.524;9.044;2024-03-02T01:08:39;96609.16;;;7.95;60.13
13387;BME280;6763;48.524;9.044;2024-03-02T01:11:05;96617.75;;;7.94;60.16
13387;BME280;6763;48.524;9.044;2024-03-02T01:13:31;96633.72;;;8.08;60.24
13387;BME280;6763;48.524;9.044;2024-03-02T01:15:56;96630.41;;;8.03;60.12
13387;BME280;6763;48.524;9.044;2024-03-02T01:18:22;96628.84;;;7.97;59.96
13387;BME280;6763;48.524;9.044;2024-03-02T01:20:48;96631.41;;;7.97;60.22
13387;BME280;6763;48.524;9.044;2024-03-02T01:23:13;96614.59;;;7.84;60.09
13387;BME280;6763;48.524;9.044;2024-03-02T01:25:38;96624.09;;;7.82;60.26
13387;BME280;6763;48.524;9.044;2024-03-02T01:28:04;96623.31;;;7.79;60.10
13387;BME280;6763;48.524;9.044;2024-03-02T01:30:30;96627.69;;;7.77;59.68
13387;BME280;6763;48.524;9.044;2024-03-02T01:32:55;96616.84;;;7.64;59.86
13387;BME280;6763;48.524;9.044;2024-03-02T01:35:20;96634.88;;;7.64;60.00
13387;BME280;6763;48.524;9.044;2024-03-02T01:37:46;96629.88;;;7.58;59.92
13387;BME280;6763;48.524;9.044;2024-03-02T01:40:11;96628.31;;;7.53;60.26
13387;BME280;6763;48.524;9.044;2024-03-02T01:42:38;96636.94;;;7.50;60.15
13387;BME280;6763;48.524;9.044;2024-03-02T01:45:05;96630.22;;;7.44;59.60
13387;BME280;6763;48.524;9.044;2024-03-02T01:47:30;96637.19;;;7.41;59.25
13387;BME280;6763;48.524;9.044;2024-03-02T01:49:56;96632.31;;;7.30;59.53
13387;BME280;6763;48.524;9.044;2024-03-02T01:52:21;96632.31;;;7.29;59.10
13387;BME280;6763;48.524;9.044;2024-03-02T01:54:46;96624.00;;;7.19;59.18
13387;BME280;6763;48.524;9.044;2024-03-02T01:57:12;96622.47;;;7.11;59.25
13387;BME280;6763;48.524;9.044;2024-03-02T01:59:37;96627.56;;;7.14;59.70
13387;BME280;6763;48.524;9.044;2024-03-02T02:02:02;96625.91;;;7.11;59.57
13387;BME280;6763;48.524;9.044;2024-03-02T02:04:28;96626.06;;;7.05;59.45
13387;BME280;6763;48.524;9.044;2024-03-02T02:06:53;96621.84;;;7.03;59.44
13387;BME280;6763;48.524;9.044;2024-03-02T02:09:19;96616.75;;;7.00;58.89
13387;BME280;6763;48.524;9.044;2024-03-02T02:11:44;96613.53;;;6.90;59.03
13387;BME280;6763;48.524;9.044;2024-03-02T02:14:10;96615.38;;;6.85;58.72
13387;BME280;6763;48.524;9.044;2024-03-02T02:16:35;96620.50;;;6.85;58.72
13387;BME280;6763;48.524;9.044;2024-03-02T02:19:01;96613.03;;;6.74;59.21
13387;BME280;6763;48.524;9.044;2024-03-02T02:21:26;96618.97;;;6.78;59.45
13387;BME280;6763;48.524;9.044;2024-03-02T02:23:52;96624.84;;;6.83;59.89
13387;BME280;6763;48.524;9.044;2024-03-02T02:26:17;96607.88;;;6.76;59.51
13387;BME280;6763;48.524;9.044;2024-03-02T02:28:43;96620.72;;;6.76;59.60
13387;BME280;6763;48.524;9.044;2024-03-02T02:31:15;96591.16;;;6.57;59.32
13387;BME280;6763;48.524;9.044;2024-03-02T02:33:40;96597.22;;;6.54;59.35
13387;BME280;6763;48.524;9.044;2024-03-02T02:36:06;96616.75;;;6.63;59.56
13387;BME280;6763;48.524;9.044;2024-03-02T02:38:33;96588.81;;;6.46;59.30
13387;BME280;6763;48.524;9.044;2024-03-02T02:41:02;96598.16;;;6.50;59.77
13387;BME280;6763;48.524;9.044;2024-03-02T02:43:27;96603.31;;;6.50;59.70
13387;BME280;6763;48.524;9.044;2024-03-02T02:48:20;96595.72;;;6.46;59.95
13387;BME280;6763;48.524;9.044;2024-03-02T02:50:45;96589.72;;;6.44;59.64
13387;BME280;6763;48.524;9.044;2024-03-02T02:53:11;96599.19;;;6.43;59.64
13387;BME280;6763;48.524;9.044;2024-03-02T02:55:36;96596.75;;;6.37;60.08
13387;BME280;6763;48.524;9.044;2024-03-02T02:58:08;96590.78;;;6.35;59.23
13387;BME280;6763;48.524;9.044;2024-03-02T03:00:33;96574.72;;;6.25;59.23
13387;BME280;6763;48.524;9.044;2024-03-02T03:02:59;96601.16;;;6.31;59.13
13387;BME280;6763;48.524;9.044;2024-03-02T03:05:24;96586.81;;;6.20;59.14
13387;BME280;6763;48.524;9.044;2024-03-02T03:07:49;96604.56;;;6.33;58.90
13387;BME280;6763;48.524;9.044;2024-03-02T03:10:15;96603.69;;;6.32;59.21
13387;BME280;6763;48.524;9.044;2024-03-02T03:12:42;96586.72;;;6.25;59.52
13387;BME280;6763;48.524;9.044;2024-03-02T03:15:09;96591.88;;;6.25;59.24
13387;BME280;6763;48.524;9.044;2024-03-02T03:17:35;96594.56;;;6.17;59.13
13387;BME280;6763;48.524;9.044;2024-03-02T03:20:01;96581.94;;;6.08;59.39
13387;BME280;6763;48.524;9.044;2024-03-02T03:22:26;96586.19;;;6.09;58.92
13387;BME280;6763;48.524;9.044;2024-03-02T03:24:52;96598.91;;;6.15;59.26
13387;BME280;6763;48.524;9.044;2024-03-02T03:27:17;96599.84;;;6.11;58.67
13387;BME280;6763;48.524;9.044;2024-03-02T03:29:42;96608.53;;;6.06;58.58
13387;BME280;6763;48.524;9.044;2024-03-02T03:32:08;96607.78;;;5.99;58.88
13387;BME280;6763;48.524;9.044;2024-03-02T03:34:33;96601.81;;;5.99;58.76
13387;BME280;6763;48.524;9.044;2024-03-02T03:36:59;96597.66;;;5.92;58.65
13387;BME280;6763;48.524;9.044;2024-03-02T03:39:24;96602.03;;;5.87;59.08
13387;BME280;6763;48.524;9.044;2024-03-02T03:41:49;96602.91;;;5.87;59.08
13387;BME280;6763;48.524;9.044;2024-03-02T03:44:15;96603.69;;;5.89;59.25
13387;BME280;6763;48.524;9.044;2024-03-02T03:46:40;96593.53;;;5.83;59.35
13387;BME280;6763;48.524;9.044;2024-03-02T03:49:06;96603.75;;;5.86;59.01
13387;BME280;6763;48.524;9.044;2024-03-02T03:51:33;96607.16;;;5.88;59.02
13387;BME280;6763;48.524;9.044;2024-03-02T03:53:58;96591.13;;;5.74;59.23
13387;BME280;6763;48.524;9.044;2024-03-02T03:56:23;96597.97;;;5.75;59.31
13387;BME280;6763;48.524;9.044;2024-03-02T03:58:48;96612.56;;;5.72;59.64
13387;BME280;6763;48.524;9.044;2024-03-02T04:01:14;96613.50;;;5.68;59.55
13387;BME280;6763;48.524;9.044;2024-03-02T04:03:39;96578.03;;;5.43;58.92
13387;BME280;6763;48.524;9.044;2024-03-02T04:06:04;96594.09;;;5.53;58.77
13387;BME280;6763;48.524;9.044;2024-03-02T04:08:30;96600.13;;;5.52;58.98
13387;BME280;6763;48.524;9.044;2024-03-02T04:10:55;96578.16;;;5.36;58.87
13387;BME280;6763;48.524;9.044;2024-03-02T04:13:20;96586.72;;;5.35;58.98
13387;BME280;6763;48.524;9.044;2024-03-02T04:15:46;96588.56;;;5.28;59.34
13387;BME280;6763;48.524;9.044;2024-03-02T04:18:11;96602.06;;;5.39;59.13
13387;BME280;6763;48.524;9.044;2024-03-02T04:20:37;96609.56;;;5.48;59.28
13387;BME280;6763;48.524;9.044;2024-03-02T04:23:02;96603.59;;;5.48;59.86
13387;BME280;6763;48.524;9.044;2024-03-02T04:25:28;96600.06;;;5.55;59.72
13387;BME280;6763;48.524;9.044;2024-03-02T04:27:53;96597.38;;;5.61;60.03
13387;BME280;6763;48.524;9.044;2024-03-02T04:30:18;96598.16;;;5.64;60.08
13387;BME280;6763;48.524;9.044;2024-03-02T04:32:44;96601.50;;;5.70;60.10
13387;BME280;6763;48.524;9.044;2024-03-02T04:35:12;96606.44;;;5.80;60.64
13387;BME280;6763;48.524;9.044;2024-03-02T04:37:38;96605.44;;;5.89;60.65
13387;BME280;6763;48.524;9.044;2024-03-02T04:40:04;96605.34;;;5.93;60.92
13387;BME280;6763;48.524;9.044;2024-03-02T04:42:33;96606.97;;;5.99;60.97
13387;BME280;6763;48.524;9.044;2024-03-02T04:44:58;96594.22;;;5.93;60.43
13387;BME280;6763;48.524;9.044;2024-03-02T04:47:23;96597.50;;;6.01;60.57
13387;BME280;6763;48.524;9.044;2024-03-02T04:49:48;96595.84;;;5.98;60.41
13387;BME280;6763;48.524;9.044;2024-03-02T04:52:14;96589.06;;;5.94;60.32
13387;BME280;6763;48.524;9.044;2024-03-02T04:54:40;96591.47;;;6.02;60.53
13387;BME280;6763;48.524;9.044;2024-03-02T04:57:24;96613.63;;;6.07;60.45
13387;BME280;6763;48.524;9.044;2024-03-02T04:59:49;96612.06;;;6.00;60.31
13387;BME280;6763;48.524;9.044;2024-03-02T05:02:14;96605.41;;;5.90;59.97
13387;BME280;6763;48.524;9.044;2024-03-02T05:04:40;96607.19;;;5.84;59.90
13387;BME280;6763;48.524;9.044;2024-03-02T05:07:05;96615.00;;;5.79;60.23
13387;BME280;6763;48.524;9.044;2024-03-02T05:09:30;96615.13;;;5.73;60.34
13387;BME280;6763;48.524;9.044;2024-03-02T05:11:56;96613.47;;;5.71;60.25
13387;BME280;6763;48.524;9.044;2024-03-02T05:14:36;96625.44;;;5.70;60.35
13387;BME280;6763;48.524;9.044;2024-03-02T05:17:01;96621.28;;;5.63;60.60
13387;BME280;6763;48.524;9.044;2024-03-02T05:19:26;96622.97;;;5.64;60.64
13387;BME280;6763;48.524;9.044;2024-03-02T05:21:52;96624.69;;;5.63;61.37
13387;BME280;6763;48.524;9.044;2024-03-02T05:24:17;96616.13;;;5.63;61.32
13387;BME280;6763;48.524;9.044;2024-03-02T05:26:42;96606.72;;;5.63;61.26
13387;BME280;6763;48.524;9.044;2024-03-02T05:29:08;96629.59;;;5.77;61.46
13387;BME280;6763;48.524;9.044;2024-03-02T05:31:34;96623.47;;;5.86;61.75
13387;BME280;6763;48.524;9.044;2024-03-02T05:33:59;96617.44;;;5.87;61.83
13387;BME280;6763;48.524;9.044;2024-03-02T05:36:24;96612.31;;;5.87;61.50
13387;BME280;6763;48.524;9.044;2024-03-02T05:38:49;96619.09;;;5.89;61.44
13387;BME280;6763;48.524;9.044;2024-03-02T05:41:15;96629.31;;;5.94;61.31
13387;BME280;6763;48.524;9.044;2024-03-02T05:43:40;96613.34;;;5.77;60.51
13387;BME280;6763;48.524;9.044;2024-03-02T05:46:05;96649.22;;;5.80;60.39
13387;BME280;6763;48.524;9.044;2024-03-02T05:48:30;96642.56;;;5.68;60.71
13387;BME280;6763;48.524;9.044;2024-03-02T05:50:56;96636.84;;;5.54;60.52
13387;BME280;6763;48.524;9.044;2024-03-02T05:53:21;96630.16;;;5.47;60.60
13387;BME280;6763;48.524;9.044;2024-03-02T05:55:46;96635.38;;;5.41;60.41
13387;BME280;6763;48.524;9.044;2024-03-02T05:58:12;96643.09;;;5.39;60.65
13387;BME280;6763;48.524;9.044;2024-03-02T06:00:51;96641.50;;;5.32;60.75
13387;BME280;6763;48.524;9.044;2024-03-02T06:03:16;96646.66;;;5.29;60.89
13387;BME280;6763;48.524;9.044;2024-03-02T06:05:41;96644.09;;;5.29;61.20
13387;BME280;6763;48.524;9.044;2024-03-02T06:08:06;96642.34;;;5.33;61.28
13387;BME280;6763;48.524;9.044;2024-03-02T06:10:32;96632.94;;;5.33;61.99
13387;BME280;6763;48.524;9.044;2024-03-02T06:12:57;96637.97;;;5.39;61.97
13387;BME280;6763;48.524;9.044;2024-03-02T06:15:24;96638.63;;;5.50;62.11
13387;BME280;6763;48.524;9.044;2024-03-02T06:17:49;96642.03;;;5.52;61.91
13387;BME280;6763;48.524;9.044;2024-03-02T06:20:15;96659.72;;;5.66;61.55
13387;BME280;6763;48.524;9.044;2024-03-02T06:22:40;96654.53;;;5.71;61.65
13387;BME280;6763;48.524;9.044;2024-03-02T06:25:06;96656.34;;;5.64;61.53
13387;BME280;6763;48.524;9.044;2024-03-02T06:27:31;96657.91;;;5.71;61.35
13387;BME280;6763;48.524;9.044;2024-03-02T06:29:56;96657.09;;;5.71;61.73
13387;BME280;6763;48.524;9.044;2024-03-02T06:32:22;96666.28;;;5.82;61.69
13387;BME280;6763;48.524;9.044;2024-03-02T06:34:48;96650.22;;;5.73;61.33
13387;BME280;6763;48.524;9.044;2024-03-02T06:37:13;96675.63;;;5.88;61.67
13387;BME280;6763;48.524;9.044;2024-03-02T06:39:38;96674.78;;;5.87;61.62
13387;BME280;6763;48.524;9.044;2024-03-02T06:42:04;96667.94;;;5.86;61.87
13387;BME280;6763;48.524;9.044;2024-03-02T06:44:29;96669.59;;;5.90;61.79
13387;BME280;6763;48.524;9.044;2024-03-02T06:46:54;96624.66;;;5.67;62.31
13387;BME280;6763;48.524;9.044;2024-03-02T06:49:20;96665.13;;;6.01;62.26
13387;BME280;6763;48.524;9.044;2024-03-02T06:51:45;96674.28;;;6.13;62.22
13387;BME280;6763;48.524;9.044;2024-03-02T06:54:10;96659.75;;;6.13;62.49
13387;BME280;6763;48.524;9.044;2024-03-02T06:56:36;96665.47;;;6.28;62.52
13387;BME280;6763;48.524;9.044;2024-03-02T06:59:01;96654.13;;;6.36;62.77
13387;BME280;6763;48.524;9.044;2024-03-02T07:01:26;96643.69;;;6.44;62.88
13387;BME280;6763;48.524;9.044;2024-03-02T07:03:53;96665.53;;;6.66;62.92
13387;BME280;6763;48.524;9.044;2024-03-02T07:06:18;96663.53;;;6.78;63.03
13387;BME280;6763;48.524;9.044;2024-03-02T07:08:43;96663.22;;;6.92;63.20
13387;BME280;6763;48.524;9.044;2024-03-02T07:11:09;96651.88;;;7.01;62.94
13387;BME280;6763;48.524;9.044;2024-03-02T07:13:34;96652.41;;;7.15;63.16
13387;BME280;6763;48.524;9.044;2024-03-02T07:16:00;96665.63;;;7.35;62.76
13387;BME280;6763;48.524;9.044;2024-03-02T07:18:31;96666.25;;;7.44;62.68
13387;BME280;6763;48.524;9.044;2024-03-02T07:20:57;96671.31;;;7.49;62.44
13387;BME280;6763;48.524;9.044;2024-03-02T07:23:29;96669.69;;;7.45;62.25
13387;BME280;6763;48.524;9.044;2024-03-02T07:25:55;96671.53;;;7.40;61.95
13387;BME280;6763;48.524;9.044;2024-03-02T07:28:22;96656.34;;;7.29;62.10
13387;BME280;6763;48.524;9.044;2024-03-02T07:30:50;96658.97;;;7.26;61.75
13387;BME280;6763;48.524;9.044;2024-03-02T07:33:22;96651.34;;;7.23;62.19
13387;BME280;6763;48.524;9.044;2024-03-02T07:35:48;96654.66;;;7.28;62.54
13387;BME280;6763;48.524;9.044;2024-03-02T07:38:13;96658.88;;;7.31;62.36
13387;BME280;6763;48.524;9.044;2024-03-02T07:40:38;96646.22;;;7.22;62.40
13387;BME280;6763;48.524;9.044;2024-03-02T07:43:04;96664.72;;;7.37;62.87
13387;BME280;6763;48.524;9.044;2024-03-02T07:45:30;96666.34;;;7.41;62.93
13387;BME280;6763;48.524;9.044;2024-03-02T07:47:55;96666.19;;;7.47;63.13
13387;BME280;6763;48.524;9.044;2024-03-02T07:50:20;96660.81;;;7.57;62.92
13387;BME280;6763;48.524;9.044;2024-03-02T07:52:45;96653.06;;;7.58;62.84
13387;BME280;6763;48.524;9.044;2024-03-02T07:55:11;96664.94;;;7.64;62.70
13387;BME280;6763;48.524;9.044;2024-03-02T07:57:36;96644.34;;;7.64;63.04
13387;BME280;6763;48.524;9.044;2024-03-02T08:00:02;96655.28;;;7.72;63.02
13387;BME280;6763;48.524;9.044;2024-03-02T08:02:27;96653.50;;;7.74;62.68
13387;BME280;6763;48.524;9.044;2024-03-02T08:04:52;96659.50;;;7.74;62.70
13387;BME280;6763;48.524;9.044;2024-03-02T08:07:18;96645.84;;;7.72;62.93
13387;BME280;6763;48.524;9.044;2024-03-02T08:09:43;96650.59;;;7.87;63.31
13387;BME280;6763;48.524;9.044;2024-03-02T08:12:08;96668.25;;;8.01;63.06
13387;BME280;6763;48.524;9.044;2024-03-02T08:14:34;96627.34;;;7.89;62.81
13387;BME280;6763;48.524;9.044;2024-03-02T08:16:59;96661.00;;;8.15;62.09
13387;BME280;6763;48.524;9.044;2024-03-02T08:19:26;96649.22;;;8.06;62.00
13387;BME280;6763;48.524;9.044;2024-03-02T08:21:52;96651.81;;;8.05;61.66
13387;BME280;6763;48.524;9.044;2024-03-02T08:24:17;96652.66;;;8.05;61.98
13387;BME280;6763;48.524;9.044;2024-03-02T08:26:42;96653.34;;;8.12;62.00
13387;BME280;6763;48.524;9.044;2024-03-02T08:29:08;96649.09;;;8.11;61.58
13387;BME280;6763;48.524;9.044;2024-03-02T08:31:33;96662.78;;;8.13;60.95
13387;BME280;6763;48.524;9.044;2024-03-02T08:33:58;96636.56;;;7.97;61.27
13387;BME280;6763;48.524;9.044;2024-03-02T08:36:24;96651.59;;;8.12;61.16
13387;BME280;6763;48.524;9.044;2024-03-02T08:38:50;96669.44;;;8.20;61.38
13387;BME280;6763;48.524;9.044;2024-03-02T08:41:15;96654.03;;;8.19;61.46
13387;BME280;6763;48.524;9.044;2024-03-02T08:43:42;96652.31;;;8.18;61.15
13387;BME280;6763;48.524;9.044;2024-03-02T08:46:07;96656.69;;;8.16;60.80
13387;BME280;6763;48.524;9.044;2024-03-02T08:48:33;96658.31;;;8.20;61.45
13387;BME280;6763;48.524;9.044;2024-03-02T08:50:58;96663.28;;;8.27;61.52
13387;BME280;6763;48.524;9.044;2024-03-02T08:53:23;96661.94;;;8.43;62.09
13387;BME280;6763;48.524;9.044;2024-03-02T08:55:49;96650.06;;;8.68;62.22
13387;BME280;6763;48.524;9.044;2024-03-02T08:58:14;96652.75;;;8.93;61.64
13387;BME280;6763;48.524;9.044;2024-03-02T09:00:40;96650.34;;;9.15;61.77
13387;BME280;6763;48.524;9.044;2024-03-02T09:03:06;96613.63;;;9.07;61.76
13387;BME280;6763;48.524;9.044;2024-03-02T09:05:32;96603.91;;;9.15;61.49
13387;BME280;6763;48.524;9.044;2024-03-02T09:07:57;96621.63;;;9.52;61.66
13387;BME280;6763;48.524;9.044;2024-03-02T09:10:23;96586.59;;;9.43;61.48
13387;BME280;6763;48.524;9.044;2024-03-02T09:12:48;96611.28;;;9.76;61.70
13387;BME280;6763;48.524;9.044;2024-03-02T09:15:13;96627.34;;;10.09;61.78
13387;BME280;6763;48.524;9.044;2024-03-02T09:17:38;96616.28;;;10.30;62.29
13387;BME280;6763;48.524;9.044;2024-03-02T09:20:05;96616.34;;;10.52;61.98
13387;BME280;6763;48.524;9.044;2024-03-02T09:22:30;96616.25;;;10.77;61.04
13387;BME280;6763;48.524;9.044;2024-03-02T09:24:55;96624.13;;;10.97;61.01
13387;BME280;6763;48.524;9.044;2024-03-02T09:27:21;96604.56;;;11.11;60.65
13387;BME280;6763;48.524;9.044;2024-03-02T09:29:47;96605.31;;;11.35;60.81
13387;BME280;6763;48.524;9.044;2024-03-02T09:32:13;96611.91;;;11.64;60.65
13387;BME280;6763;48.524;9.044;2024-03-02T09:34:39;96587.19;;;11.77;59.41
13387;BME280;6763;48.524;9.044;2024-03-02T09:37:04;96598.13;;;12.04;59.19
13387;BME280;6763;48.524;9.044;2024-03-02T09:39:30;96586.81;;;12.25;59.14
13387;BME280;6763;48.524;9.044;2024-03-02T09:41:55;96594.00;;;12.57;58.22
13387;BME280;6763;48.524;9.044;2024-03-02T09:44:21;96589.44;;;12.81;57.59
13387;BME280;6763;48.524;9.044;2024-03-02T09:46:51;96589.72;;;13.12;57.42
13387;BME280;6763;48.524;9.044;2024-03-02T09:49:17;96583.41;;;13.35;56.93
13387;BME280;6763;48.524;9.044;2024-03-02T09:51:47;96560.53;;;13.41;56.31
13387;BME280;6763;48.524;9.044;2024-03-02T09:54:15;96595.09;;;13.78;55.90
13387;BME280;6763;48.524;9.044;2024-03-02T09:56:40;96594.13;;;13.97;54.29
13387;BME280;6763;48.524;9.044;2024-03-02T09:59:06;96587.72;;;14.20;53.90
13387;BME280;6763;48.524;9.044;2024-03-02T10:01:31;96576.69;;;14.32;52.65
13387;BME280;6763;48.524;9.044;2024-03-02T10:03:59;96580.16;;;14.48;50.91
13387;BME280;6763;48.524;9.044;2024-03-02T10:06:26;96580.13;;;14.65;50.40
13387;BME280;6763;48.524;9.044;2024-03-02T10:08:52;96567.44;;;14.75;50.64
13387;BME280;6763;48.524;9.044;2024-03-02T10:11:44;96542.41;;;14.88;49.41
13387;BME280;6763;48.524;9.044;2024-03-02T10:14:10;96562.47;;;15.17;49.08
13387;BME280;6763;48.524;9.044;2024-03-02T10:16:37;96541.94;;;15.27;49.06
13387;BME280;6763;48.524;9.044;2024-03-02T10:21:52;96565.31;;;16.60;45.77
13387;BME280;6763;48.524;9.044;2024-03-02T10:24:18;96549.91;;;17.23;44.00
13387;BME280;6763;48.524;9.044;2024-03-02T10:26:44;96557.56;;;18.17;42.16
13387;BME280;6763;48.524;9.044;2024-03-02T10:29:10;96552.88;;;19.20;39.85
13387;BME280;6763;48.524;9.044;2024-03-02T10:31:41;96547.31;;;20.18;38.34
13387;BME280;6763;48.524;9.044;2024-03-02T10:34:07;96535.50;;;20.90;35.88
13387;BME280;6763;48.524;9.044;2024-03-02T10:36:33;96536.03;;;21.58;35.13
13387;BME280;6763;48.524;9.044;2024-03-02T10:39:05;96532.47;;;22.21;33.58
13387;BME280;6763;48.524;9.044;2024-03-02T10:41:36;96526.81;;;22.87;32.83
13387;BME280;6763;48.524;9.044;2024-03-02T10:44:06;96520.28;;;23.59;31.66
13387;BME280;6763;48.524;9.044;2024-03-02T10:46:33;96526.25;;;24.09;30.22
13387;BME280;6763;48.524;9.044;2024-03-02T10:49:00;96513.88;;;24.56;29.52
13387;BME280;6763;48.524;9.044;2024-03-02T10:51:28;96507.78;;;25.10;28.36
13387;BME280;6763;48.524;9.044;2024-03-02T10:53:57;96510.94;;;25.58;27.90
13387;BME280;6763;48.524;9.044;2024-03-02T10:56:33;96508.63;;;25.99;27.27
13387;BME280;6763;48.524;9.044;2024-03-02T10:59:14;96506.88;;;26.33;27.08
13387;BME280;6763;48.524;9.044;2024-03-02T11:01:42;96506.69;;;26.86;26.61
13387;BME280;6763;48.524;9.044;2024-03-02T11:04:08;96497.00;;;27.11;25.51
13387;BME280;6763;48.524;9.044;2024-03-02T11:06:36;96495.41;;;27.34;25.27
13387;BME280;6763;48.524;9.044;2024-03-02T11:09:06;96499.59;;;27.60;24.84
13387;BME280;6763;48.524;9.044;2024-03-02T11:11:36;96481.00;;;27.60;24.53
13387;BME280;6763;48.524;9.044;2024-03-02T11:14:04;96477.84;;;27.89;24.05
13387;BME280;6763;48.524;9.044;2024-03-02T11:16:38;96478.19;;;28.10;23.50
13387;BME280;6763;48.524;9.044;2024-03-02T11:19:10;96486.00;;;28.12;23.96
13387;BME280;6763;48.524;9.044;2024-03-02T11:21:37;96467.56;;;28.02;23.43
13387;BME280;6763;48.524;9.044;2024-03-02T11:26:47;96469.69;;;28.07;23.69
13387;BME280;6763;48.524;9.044;2024-03-02T11:32:12;96463.03;;;27.70;22.70
13387;BME280;6763;48.524;9.044;2024-03-02T11:34:41;96449.38;;;27.33;23.05
13387;BME280;6763;48.524;9.044;2024-03-02T11:37:10;96446.34;;;27.04;23.09
13387;BME280;6763;48.524;9.044;2024-03-02T11:39:35;96452.59;;;26.79;22.83
13387;BME280;6763;48.524;9.044;2024-03-02T11:42:01;96449.16;;;26.61;23.08
13387;BME280;6763;48.524;9.044;2024-03-02T11:44:28;96444.16;;;26.58;23.47
13387;BME280;6763;48.524;9.044;2024-03-02T11:47:00;96442.84;;;26.62;23.44
13387;BME280;6763;48.524;9.044;2024-03-02T11:49:52;96435.13;;;26.76;23.41
13387;BME280;6763;48.524;9.044;2024-03-02T11:52:18;96426.94;;;26.70;23.36
13387;BME280;6763;48.524;9.044;2024-03-02T11:54:45;96424.50;;;26.76;23.75
13387;BME280;6763;48.524;9.044;2024-03-02T11:57:21;96409.63;;;26.83;23.27
13387;BME280;6763;48.524;9.044;2024-03-02T11:59:50;96413.66;;;27.12;23.42
13387;BME280;6763;48.524;9.044;2024-03-02T12:02:17;96415.81;;;27.24;22.91
13387;BME280;6763;48.524;9.044;2024-03-02T12:04:44;96393.41;;;27.27;22.80
13387;BME280;6763;48.524;9.044;2024-03-02T12:07:10;96400.44;;;27.44;22.31
13387;BME280;6763;48.524;9.044;2024-03-02T12:09:36;96396.56;;;27.70;21.83
13387;BME280;6763;48.524;9.044;2024-03-02T12:12:03;96384.78;;;27.73;21.77
13387;BME280;6763;48.524;9.044;2024-03-02T12:14:29;96396.88;;;27.84;21.32
13387;BME280;6763;48.524;9.044;2024-03-02T12:16:55;96394.91;;;27.86;21.27
13387;BME280;6763;48.524;9.044;2024-03-02T12:19:20;96392.91;;;28.04;21.12
13387;BME280;6763;48.524;9.044;2024-03-02T12:21:46;96388.66;;;28.34;20.30
13387;BME280;6763;48.524;9.044;2024-03-02T12:24:11;96376.94;;;28.51;19.90
13387;BME280;6763;48.524;9.044;2024-03-02T12:26:36;96379.72;;;28.57;19.67
13387;BME280;6763;48.524;9.044;2024-03-02T12:29:02;96371.06;;;28.24;20.24
13387;BME280;6763;48.524;9.044;2024-03-02T12:31:27;96354.50;;;27.90;20.03
13387;BME280;6763;48.524;9.044;2024-03-02T12:33:53;96360.16;;;27.87;20.30
13387;BME280;6763;48.524;9.044;2024-03-02T12:36:19;96367.81;;;27.82;19.99
13387;BME280;6763;48.524;9.044;2024-03-02T12:38:44;96369.97;;;27.70;20.15
13387;BME280;6763;48.524;9.044;2024-03-02T12:41:14;96361.66;;;27.82;20.20
13387;BME280;6763;48.524;9.044;2024-03-02T12:43:40;96337.94;;;27.56;20.02
13387;BME280;6763;48.524;9.044;2024-03-02T12:46:05;96350.72;;;27.52;19.93
13387;BME280;6763;48.524;9.044;2024-03-02T12:48:31;96351.56;;;27.21;20.28
13387;BME280;6763;48.524;9.044;2024-03-02T12:50:56;96349.75;;;27.05;20.41
13387;BME280;6763;48.524;9.044;2024-03-02T12:53:22;96330.13;;;26.98;20.76
13387;BME280;6763;48.524;9.044;2024-03-02T12:55:48;96331.13;;;27.21;20.70
13387;BME280;6763;48.524;9.044;2024-03-02T12:58:20;96338.44;;;27.59;20.67
13387;BME280;6763;48.524;9.044;2024-03-02T13:00:49;96343.06;;;27.74;20.50
13387;BME280;6763;48.524;9.044;2024-03-02T13:03:14;96318.03;;;27.60;20.51
13387;BME280;6763;48.524;9.044;2024-03-02T13:05:40;96341.28;;;27.26;20.79
13387;BME280;6763;48.524;9.044;2024-03-02T13:08:06;96336.78;;;26.94;20.99
13387;BME280;6763;48.524;9.044;2024-03-02T13:10:32;96338.28;;;27.04;21.28
13387;BME280;6763;48.524;9.044;2024-03-02T13:12:58;96341.28;;;27.18;20.89
13387;BME280;6763;48.524;9.044;2024-03-02T13:15:23;96339.09;;;27.21;20.68
13387;BME280;6763;48.524;9.044;2024-03-02T13:17:49;96338.56;;;26.85;20.35
13387;BME280;6763;48.524;9.044;2024-03-02T13:20:16;96309.31;;;26.11;20.96
13387;BME280;6763;48.524;9.044;2024-03-02T13:22:43;96331.41;;;25.43;21.82
13387;BME280;6763;48.524;9.044;2024-03-02T13:25:08;96323.47;;;24.99;22.44